Terminal Aerodrome Forecast
Issued by NWS Quad Cities IA IL

Home | Current Version | Previous Version | Text Only | Print | Product List | Glossary On
Versions: 1 2 3 4 5 6 7 8 9 10 11 12 13 14 15 16 17 18 19 20 21 22 23 24 25 26 27
000
FTUS43 KDVN 221500 AAA
TAFDBQ
TAF AMD
KDBQ 221556Z 2216/2312 15010KT 5SM BR SCT012 OVC045
     FM221800 12011KT P6SM VCSH BKN012 OVC020
     FM222000 10010KT 4SM -RADZ BR BKN007 OVC012
     FM230300 09012KT 2SM RA BR OVC006=

USA.gov is the U.S. government's official web portal to all federal, state and local government web resources and services.